Jan Caribe — V2QD — position and weather

sailwx.info

Track history (hours):
 
Tides and Currents Weather Stations Pressure Air Temp Water Temp Dewpoint Dewpoint Depression Visibility Wind Speed Wind Dir Waves Ship Positions

Jan Caribe

Last reported at 2017-Dec-08 22:07 UTC. Time now 2017-Dec-15 14:24 UTC.
Position N 25°29' W 080°00'.

Length 95 m; draft 4.7 m.

Type: Cargo ship. MMSI: 304010792.

Date/timePositionNaut miles runAvg speedWind from/ knotsBaromVisibWave heightAir tempDewpointWater temp
2017-Dec-08 22:07N 25°29' W 080°00'1 9.0
2017-Dec-08 22:00N 25°30' W 080°00'4 9.2
2017-Dec-08 21:30N 25°35' W 079°60'5 9.3
2017-Dec-08 21:00N 25°39' W 079°60'5 9.3
2017-Dec-08 20:30N 25°44' W 080°00'5 9.2
2017-Dec-08 20:00N 25°49' W 079°60'510.0
2017-Dec-08 19:30N 25°54' W 079°59'5 9.6
2017-Dec-08 19:00N 25°58' W 079°59'5 9.0
2017-Dec-08 18:30N 26°01' W 080°02'5 9.9
2017-Dec-08 18:00N 26°06' W 080°05'2 3.4
2017-Dec-08 17:23N 26°04' W 080°07'0 0.0
2017-Dec-08 16:53N 26°04' W 080°07'0 0.0
2017-Dec-08 16:23N 26°04' W 080°07'0 0.0
2017-Dec-08 15:53N 26°04' W 080°07'0 0.0
2017-Dec-08 15:23N 26°04' W 080°07'0 0.0
2017-Dec-08 14:53N 26°04' W 080°07'0 0.0
2017-Dec-08 14:23N 26°04' W 080°07'0 0.0
2017-Dec-08 13:56N 26°04' W 080°07'0 0.0
2017-Dec-08 13:26N 26°04' W 080°07'0 0.0
2017-Dec-08 12:53N 26°04' W 080°07'0 0.0
2017-Dec-08 12:26N 26°04' W 080°07'0 0.0
2017-Dec-08 11:56N 26°04' W 080°07'0 0.0
2017-Dec-08 11:26N 26°04' W 080°07'0 0.0
2017-Dec-08 10:56N 26°04' W 080°07'0 0.0
2017-Dec-08 10:26N 26°04' W 080°07'0 0.0
2017-Dec-08 09:56N 26°04' W 080°07'0 0.0
2017-Dec-08 09:26N 26°04' W 080°07'0 0.0
2017-Dec-08 08:59N 26°04' W 080°07'0 0.2
2017-Dec-08 08:29N 26°04' W 080°07'2 4.8
2017-Dec-08 08:00N 26°06' W 080°05'3 4.8
2017-Dec-08 07:29N 26°08' W 080°04'0 0.1
2017-Dec-08 06:59N 26°08' W 080°04'0 0.0
2017-Dec-08 06:29N 26°08' W 080°04'0 0.0
2017-Dec-08 05:59N 26°08' W 080°04'0 0.0
2017-Dec-08 05:20N 26°08' W 080°04'0 0.0
2017-Dec-08 04:50N 26°08' W 080°05'0 0.0
2017-Dec-08 04:20N 26°08' W 080°04'0 0.0
2017-Dec-08 03:50N 26°08' W 080°05'0 0.0
2017-Dec-08 03:23N 26°08' W 080°05'0 0.0
2017-Dec-08 02:47N 26°08' W 080°05'0 0.0
2017-Dec-08 02:23N 26°08' W 080°05'0 0.0
2017-Dec-08 01:53N 26°08' W 080°05'0 0.0
2017-Dec-08 01:23N 26°08' W 080°05'0 0.0
2017-Dec-08 00:53N 26°08' W 080°05'0 0.0
2017-Dec-08 00:23N 26°08' W 080°05'0 0.0
2017-Dec-07 23:53N 26°08' W 080°05'0 0.0
2017-Dec-07 23:23N 26°08' W 080°05'0 0.0
2017-Dec-07 22:53N 26°08' W 080°05'0 0.1
2017-Dec-07 22:26N 26°08' W 080°05'0 0.1
2017-Dec-07 21:56N 26°08' W 080°04'0 0.0
2017-Dec-07 21:26N 26°08' W 080°05'0 0.0
2017-Dec-07 20:56N 26°08' W 080°05'0 0.0
2017-Dec-07 20:23N 26°08' W 080°05'0 0.0
2017-Dec-07 19:56N 26°08' W 080°05'0 0.0
2017-Dec-07 19:26N 26°08' W 080°05'0 0.0
2017-Dec-07 18:56N 26°08' W 080°04'0 0.0
2017-Dec-07 18:23N 26°08' W 080°04'0 0.0
2017-Dec-07 17:56N 26°08' W 080°04'0 0.0
2017-Dec-07 17:26N 26°08' W 080°04'0 0.0
2017-Dec-07 16:59N 26°08' W 080°04'0 0.0
2017-Dec-07 16:29N 26°08' W 080°04'0 0.0
2017-Dec-07 15:59N 26°08' W 080°04'0 0.0
2017-Dec-07 15:29N 26°08' W 080°04'0 0.0
2017-Dec-07 14:59N 26°08' W 080°04'0 0.0
2017-Dec-07 14:29N 26°08' W 080°04'0 0.0
2017-Dec-07 13:59N 26°08' W 080°04'0 0.0
2017-Dec-07 13:29N 26°08' W 080°04'0 0.0
2017-Dec-07 12:59N 26°08' W 080°04'0 0.0
2017-Dec-07 12:29N 26°08' W 080°04'0 0.0
2017-Dec-07 11:59N 26°08' W 080°04'0 0.0
2017-Dec-07 11:29N 26°08' W 080°04'0 0.0
2017-Dec-07 10:59N 26°08' W 080°04'0 0.0
2017-Dec-07 10:26N 26°08' W 080°04'0 0.0
2017-Dec-07 09:59N 26°08' W 080°05'0 0.0
2017-Dec-07 09:29N 26°08' W 080°05'0 0.0
2017-Dec-07 08:47N 26°08' W 080°05'0 0.0
2017-Dec-07 08:17N 26°08' W 080°04'0 0.0
2017-Dec-07 07:59N 26°08' W 080°04'0 0.0
2017-Dec-07 07:29N 26°08' W 080°04'0 0.0
2017-Dec-07 06:59N 26°08' W 080°05'0 0.0
2017-Dec-07 06:20N 26°08' W 080°05'0 0.0
2017-Dec-07 05:59N 26°08' W 080°05'0 0.0
2017-Dec-07 05:29N 26°08' W 080°05'0 0.1
2017-Dec-07 04:59N 26°08' W 080°05'0 0.0
2017-Dec-07 04:19N 26°08' W 080°05'0 0.0
2017-Dec-07 03:49N 26°08' W 080°05'0 0.0
2017-Dec-07 03:19N 26°08' W 080°05'0 0.0
2017-Dec-07 02:49N 26°08' W 080°05'0 0.0
2017-Dec-07 02:16N 26°08' W 080°05'0 0.0
2017-Dec-07 01:52N 26°08' W 080°05'0 0.0
2017-Dec-07 01:22N 26°08' W 080°05'0 0.0
2017-Dec-07 00:52N 26°08' W 080°05'0 0.0
2017-Dec-07 00:22N 26°08' W 080°05'0 0.0
2017-Dec-06 23:52N 26°08' W 080°05'0 0.0
2017-Dec-06 23:22N 26°08' W 080°05'0 0.0
2017-Dec-06 22:52N 26°08' W 080°05'0 0.0
2017-Dec-06 22:22N 26°08' W 080°05'0 0.0
2017-Dec-06 21:52N 26°08' W 080°05'0 0.0
2017-Dec-06 21:10N 26°08' W 080°05'0 0.0
2017-Dec-06 20:55N 26°08' W 080°05'  
Track history (hours):
 
Tides and Currents Weather Stations Pressure Air Temp Water Temp Dewpoint Dewpoint Depression Visibility Wind Speed Wind Dir Waves Ship Positions

Jan Caribe

Last reported at 2017-Dec-08 22:07 UTC. Time now 2017-Dec-15 14:24 UTC.
Position N 25°29' W 080°00'.

Length 95 m; draft 4.7 m.

Type: Cargo ship. MMSI: 304010792.

Date/timePositionNaut miles runAvg speedWind from/ knotsBaromVisibWave heightAir tempDewpointWater temp
2017-Dec-08 22:07N 25°29' W 080°00'1 9.0
2017-Dec-08 22:00N 25°30' W 080°00'4 9.2
2017-Dec-08 21:30N 25°35' W 079°60'5 9.3
2017-Dec-08 21:00N 25°39' W 079°60'5 9.3
2017-Dec-08 20:30N 25°44' W 080°00'5 9.2
2017-Dec-08 20:00N 25°49' W 079°60'510.0
2017-Dec-08 19:30N 25°54' W 079°59'5 9.6
2017-Dec-08 19:00N 25°58' W 079°59'5 9.0
2017-Dec-08 18:30N 26°01' W 080°02'5 9.9
2017-Dec-08 18:00N 26°06' W 080°05'2 3.4
2017-Dec-08 17:23N 26°04' W 080°07'0 0.0
2017-Dec-08 16:53N 26°04' W 080°07'0 0.0
2017-Dec-08 16:23N 26°04' W 080°07'0 0.0
2017-Dec-08 15:53N 26°04' W 080°07'0 0.0
2017-Dec-08 15:23N 26°04' W 080°07'0 0.0
2017-Dec-08 14:53N 26°04' W 080°07'0 0.0
2017-Dec-08 14:23N 26°04' W 080°07'0 0.0
2017-Dec-08 13:56N 26°04' W 080°07'0 0.0
2017-Dec-08 13:26N 26°04' W 080°07'0 0.0
2017-Dec-08 12:53N 26°04' W 080°07'0 0.0
2017-Dec-08 12:26N 26°04' W 080°07'0 0.0
2017-Dec-08 11:56N 26°04' W 080°07'0 0.0
2017-Dec-08 11:26N 26°04' W 080°07'0 0.0
2017-Dec-08 10:56N 26°04' W 080°07'0 0.0
2017-Dec-08 10:26N 26°04' W 080°07'0 0.0
2017-Dec-08 09:56N 26°04' W 080°07'0 0.0
2017-Dec-08 09:26N 26°04' W 080°07'0 0.0
2017-Dec-08 08:59N 26°04' W 080°07'0 0.2
2017-Dec-08 08:29N 26°04' W 080°07'2 4.8
2017-Dec-08 08:00N 26°06' W 080°05'3 4.8
2017-Dec-08 07:29N 26°08' W 080°04'0 0.1
2017-Dec-08 06:59N 26°08' W 080°04'0 0.0
2017-Dec-08 06:29N 26°08' W 080°04'0 0.0
2017-Dec-08 05:59N 26°08' W 080°04'0 0.0
2017-Dec-08 05:20N 26°08' W 080°04'0 0.0
2017-Dec-08 04:50N 26°08' W 080°05'0 0.0
2017-Dec-08 04:20N 26°08' W 080°04'0 0.0
2017-Dec-08 03:50N 26°08' W 080°05'0 0.0
2017-Dec-08 03:23N 26°08' W 080°05'0 0.0
2017-Dec-08 02:47N 26°08' W 080°05'0 0.0
2017-Dec-08 02:23N 26°08' W 080°05'0 0.0
2017-Dec-08 01:53N 26°08' W 080°05'0 0.0
2017-Dec-08 01:23N 26°08' W 080°05'0 0.0
2017-Dec-08 00:53N 26°08' W 080°05'0 0.0
2017-Dec-08 00:23N 26°08' W 080°05'0 0.0
2017-Dec-07 23:53N 26°08' W 080°05'0 0.0
2017-Dec-07 23:23N 26°08' W 080°05'0 0.0
2017-Dec-07 22:53N 26°08' W 080°05'0 0.1
2017-Dec-07 22:26N 26°08' W 080°05'0 0.1
2017-Dec-07 21:56N 26°08' W 080°04'0 0.0
2017-Dec-07 21:26N 26°08' W 080°05'0 0.0
2017-Dec-07 20:56N 26°08' W 080°05'0 0.0
2017-Dec-07 20:23N 26°08' W 080°05'0 0.0
2017-Dec-07 19:56N 26°08' W 080°05'0 0.0
2017-Dec-07 19:26N 26°08' W 080°05'0 0.0
2017-Dec-07 18:56N 26°08' W 080°04'0 0.0
2017-Dec-07 18:23N 26°08' W 080°04'0 0.0
2017-Dec-07 17:56N 26°08' W 080°04'0 0.0
2017-Dec-07 17:26N 26°08' W 080°04'0 0.0
2017-Dec-07 16:59N 26°08' W 080°04'0 0.0
2017-Dec-07 16:29N 26°08' W 080°04'0 0.0
2017-Dec-07 15:59N 26°08' W 080°04'0 0.0
2017-Dec-07 15:29N 26°08' W 080°04'0 0.0
2017-Dec-07 14:59N 26°08' W 080°04'0 0.0
2017-Dec-07 14:29N 26°08' W 080°04'0 0.0
2017-Dec-07 13:59N 26°08' W 080°04'0 0.0
2017-Dec-07 13:29N 26°08' W 080°04'0 0.0
2017-Dec-07 12:59N 26°08' W 080°04'0 0.0
2017-Dec-07 12:29N 26°08' W 080°04'0 0.0
2017-Dec-07 11:59N 26°08' W 080°04'0 0.0
2017-Dec-07 11:29N 26°08' W 080°04'0 0.0
2017-Dec-07 10:59N 26°08' W 080°04'0 0.0
2017-Dec-07 10:26N 26°08' W 080°04'0 0.0
2017-Dec-07 09:59N 26°08' W 080°05'0 0.0
2017-Dec-07 09:29N 26°08' W 080°05'0 0.0
2017-Dec-07 08:47N 26°08' W 080°05'0 0.0
2017-Dec-07 08:17N 26°08' W 080°04'0 0.0
2017-Dec-07 07:59N 26°08' W 080°04'0 0.0
2017-Dec-07 07:29N 26°08' W 080°04'0 0.0
2017-Dec-07 06:59N 26°08' W 080°05'0 0.0
2017-Dec-07 06:20N 26°08' W 080°05'0 0.0
2017-Dec-07 05:59N 26°08' W 080°05'0 0.0
2017-Dec-07 05:29N 26°08' W 080°05'0 0.1
2017-Dec-07 04:59N 26°08' W 080°05'0 0.0
2017-Dec-07 04:19N 26°08' W 080°05'0 0.0
2017-Dec-07 03:49N 26°08' W 080°05'0 0.0
2017-Dec-07 03:19N 26°08' W 080°05'0 0.0
2017-Dec-07 02:49N 26°08' W 080°05'0 0.0
2017-Dec-07 02:16N 26°08' W 080°05'0 0.0
2017-Dec-07 01:52N 26°08' W 080°05'0 0.0
2017-Dec-07 01:22N 26°08' W 080°05'0 0.0
2017-Dec-07 00:52N 26°08' W 080°05'0 0.0
2017-Dec-07 00:22N 26°08' W 080°05'0 0.0
2017-Dec-06 23:52N 26°08' W 080°05'0 0.0
2017-Dec-06 23:22N 26°08' W 080°05'0 0.0
2017-Dec-06 22:52N 26°08' W 080°05'0 0.0
2017-Dec-06 22:22N 26°08' W 080°05'0 0.0
2017-Dec-06 21:52N 26°08' W 080°05'0 0.0
2017-Dec-06 21:10N 26°08' W 080°05'0 0.0
2017-Dec-06 20:55N 26°08' W 080°05'  

Dump ship's entire track history